Time;durP1;ratioP1;P1;durP2;ratioP2;P2;SDS_P1;SDS_P2;PMS_P1;PMS_P2;Temp;Humidity;BMP_temperature;BMP_pressure;BME280_temperature;BME280_humidity;BME280_pressure;Samples;Min_cycle;Max_cycle;Signal;HPM_P1;HPM_P2
2022/11/17 00:01:08;;;;;;;16.67;8.93;;;;;;;8.60;100.00;98829.56;5033403;28;20458;-80
2022/11/17 00:03:34;;;;;;;16.45;8.68;;;;;;;8.60;100.00;98808.19;5035090;28;20104;-81
2022/11/17 00:06:04;;;;;;;17.63;9.30;;;;;;;8.40;100.00;98773.91;5034976;28;20033;-81
2022/11/17 00:08:29;;;;;;;18.27;8.57;;;;;;;8.46;100.00;98782.84;5034903;28;20053;-79
2022/11/17 00:10:59;;;;;;;15.23;8.43;;;;;;;8.52;100.00;98787.44;5034764;28;20122;-80
2022/11/17 00:16:12;;;;;;;20.80;9.93;;;;;;;8.59;100.00;98780.81;5035284;28;20061;-77
2022/11/17 00:21:22;;;;;;;18.13;9.23;;;;;;;8.58;100.00;98774.06;5034903;28;20447;-80
2022/11/17 00:23:48;;;;;;;20.42;8.70;;;;;;;8.62;100.00;98772.81;5034349;28;20029;-81
2022/11/17 00:26:34;;;;;;;17.30;8.63;;;;;;;8.55;100.00;98762.28;5034681;28;20064;-80
2022/11/17 00:29:03;;;;;;;19.92;9.32;;;;;;;8.52;100.00;98746.28;5034282;28;20022;-76
2022/11/17 00:34:19;;;;;;;14.90;8.55;;;;;;;8.52;100.00;98733.41;5034625;28;20091;-81
2022/11/17 00:36:48;;;;;;;16.35;7.75;;;;;;;8.61;100.00;98748.88;5034359;28;20017;-80
2022/11/17 00:39:15;;;;;;;14.57;8.40;;;;;;;8.59;100.00;98742.22;5034415;28;20036;-80
2022/11/17 00:41:43;;;;;;;17.10;8.38;;;;;;;8.67;100.00;98734.66;5033283;28;20052;-76
2022/11/17 00:44:08;;;;;;;15.68;7.88;;;;;;;8.67;100.00;98726.94;5034035;28;20038;-78
2022/11/17 00:46:36;;;;;;;17.77;8.85;;;;;;;8.66;100.00;98735.59;5034136;28;20052;-80
2022/11/17 00:49:02;;;;;;;17.95;8.75;;;;;;;8.67;100.00;98718.41;5034249;28;20037;-79
2022/11/17 00:51:27;;;;;;;16.13;8.68;;;;;;;8.67;100.00;98713.25;5033855;28;20384;-80
2022/11/17 00:53:52;;;;;;;16.10;8.63;;;;;;;8.67;100.00;98720.97;5033813;28;20025;-77
2022/11/17 00:56:18;;;;;;;17.77;8.80;;;;;;;8.68;100.00;98714.88;5033776;28;20435;-77
2022/11/17 00:58:43;;;;;;;19.25;9.77;;;;;;;8.41;100.00;98675.22;5033953;28;20029;-79
2022/11/17 01:01:09;;;;;;;16.13;8.23;;;;;;;8.54;100.00;98685.22;5033821;28;20072;-79
2022/11/17 01:03:35;;;;;;;18.92;7.63;;;;;;;8.55;100.00;98676.56;5033867;28;20137;-81
2022/11/17 01:06:08;;;;;;;14.05;7.72;;;;;;;8.67;100.00;98696.06;5033869;28;20469;-77
2022/11/17 01:08:34;;;;;;;14.63;7.68;;;;;;;8.59;100.00;98677.91;5033850;28;20056;-78
2022/11/17 01:11:08;;;;;;;16.88;7.82;;;;;;;8.56;100.00;98657.63;5033923;28;20053;-81
2022/11/17 01:13:34;;;;;;;16.17;8.00;;;;;;;8.68;100.00;98689.16;5033712;28;20032;-80
2022/11/17 01:16:11;;;;;;;14.77;8.25;;;;;;;8.58;100.00;98678.88;5033593;28;20052;-77
2022/11/17 01:18:37;;;;;;;12.32;8.10;;;;;;;8.51;100.00;98670.06;5033717;28;20022;-78
2022/11/17 01:21:06;;;;;;;15.23;8.43;;;;;;;8.69;100.00;98689.00;5033384;28;20029;-81
2022/11/17 01:23:32;;;;;;;13.88;8.13;;;;;;;8.69;100.00;98685.63;5033450;28;20029;-81
2022/11/17 01:26:02;;;;;;;15.38;7.65;;;;;;;8.70;100.00;98664.09;5033256;28;20041;-78
2022/11/17 01:28:28;;;;;;;11.98;6.90;;;;;;;8.59;100.00;98649.63;5033316;28;20057;-77
2022/11/17 01:31:01;;;;;;;12.07;7.22;;;;;;;8.72;100.00;98668.16;5033606;28;20571;-81
2022/11/17 01:33:27;;;;;;;14.23;7.30;;;;;;;8.68;100.00;98660.84;5033243;28;20021;-81
2022/11/17 01:35:52;;;;;;;11.45;5.97;;;;;;;8.59;100.00;98641.91;5033406;28;20036;-81
2022/11/17 01:38:18;;;;;;;9.60;5.57;;;;;;;8.66;100.00;98642.19;5033406;28;20057;-82
2022/11/17 01:40:43;;;;;;;13.48;5.68;;;;;;;8.77;100.00;98668.56;5033105;28;20033;-80
2022/11/17 01:43:11;;;;;;;12.88;6.28;;;;;;;8.75;100.00;98657.59;5033029;28;20072;-82
2022/11/17 01:45:36;;;;;;;9.75;5.68;;;;;;;8.73;100.00;98640.66;5033146;28;20540;-81
2022/11/17 01:48:07;;;;;;;13.88;6.35;;;;;;;8.82;100.00;98645.78;5032970;28;20104;-80
2022/11/17 01:50:38;;;;;;;9.75;5.57;;;;;;;8.66;100.00;98601.00;5015174;28;20091;-81
2022/11/17 01:53:15;;;;;;;9.20;4.45;;;;;;;8.80;100.00;98611.66;5015126;28;20433;-78
2022/11/17 01:55:47;;;;;;;9.38;4.05;;;;;;;8.79;100.00;98591.22;5032869;28;20029;-81
2022/11/17 01:58:19;;;;;;;8.38;4.13;;;;;;;8.87;100.00;98594.72;5033097;28;20025;-82
2022/11/17 02:00:46;;;;;;;9.35;4.57;;;;;;;8.87;100.00;98592.13;5032941;28;20036;-81
2022/11/17 02:03:12;;;;;;;8.85;4.00;;;;;;;8.93;100.00;98613.91;5039934;23;20099;-81
2022/11/17 02:05:45;;;;;;;6.10;3.55;;;;;;;8.86;100.00;98597.44;5033043;28;20473;-80
2022/11/17 02:08:11;;;;;;;7.35;3.72;;;;;;;8.94;100.00;98607.81;5032859;28;20469;-79
2022/11/17 02:10:37;;;;;;;6.45;3.75;;;;;;;9.07;100.00;98626.34;5032637;28;20030;-80
2022/11/17 02:13:04;;;;;;;5.68;3.80;;;;;;;9.04;100.00;98594.91;5033083;28;20064;-81
2022/11/17 02:15:30;;;;;;;6.95;3.70;;;;;;;9.10;100.00;98592.59;5032822;28;20048;-79
2022/11/17 02:17:57;;;;;;;6.03;3.50;;;;;;;9.12;100.00;98606.13;5033130;28;20030;-80
2022/11/17 02:20:40;;;;;;;6.18;3.38;;;;;;;9.14;100.00;98609.41;5015181;28;20021;-81
2022/11/17 02:23:24;;;;;;;7.53;3.50;;;;;;;9.15;100.00;98612.78;5032734;28;20041;-80
2022/11/17 02:26:20;;;;;;;8.00;3.10;;;;;;;9.12;100.00;98600.16;5032598;28;20495;-80
2022/11/17 02:28:55;;;;;;;7.75;3.08;;;;;;;9.17;100.00;98609.09;5032751;28;20121;-80
2022/11/17 02:31:31;;;;;;;7.00;3.35;;;;;;;9.18;100.00;98621.03;5032864;28;20025;-80
2022/11/17 02:34:12;;;;;;;6.07;2.90;;;;;;;9.17;100.00;98616.81;5015051;28;20021;-81
2022/11/17 02:37:05;;;;;;;4.85;3.03;;;;;;;9.18;100.00;98615.06;5032829;28;20061;-81
2022/11/17 02:39:48;;;;;;;6.05;2.60;;;;;;;9.09;100.00;98582.44;5032791;28;20060;-80
2022/11/17 02:45:24;;;;;;;5.07;2.40;;;;;;;9.16;100.00;98575.78;5032758;28;20121;-80
2022/11/17 02:47:53;;;;;;;5.00;2.70;;;;;;;8.90;100.00;98521.53;5032731;28;20033;-81
2022/11/17 02:50:21;;;;;;;5.93;2.58;;;;;;;9.05;100.00;98535.59;5032643;28;20026;-79
2022/11/17 02:52:46;;;;;;;5.10;2.50;;;;;;;9.26;100.00;98566.25;5032520;28;20033;-80
2022/11/17 02:55:12;;;;;;;4.78;2.30;;;;;;;9.15;100.00;98548.41;5032593;28;20028;-77
2022/11/17 02:57:39;;;;;;;5.82;2.10;;;;;;;9.25;100.00;98556.09;5032385;28;20465;-78
2022/11/17 03:00:08;;;;;;;4.85;2.03;;;;;;;9.22;100.00;98540.91;5032530;28;20033;-79
2022/11/17 03:03:01;;;;;;;5.15;2.30;;;;;;;9.04;100.00;98507.38;5032289;28;20025;-81
2022/11/17 03:05:55;;;;;;;4.82;1.90;;;;;;;9.21;100.00;98519.50;5034914;28;20053;-78
2022/11/17 03:08:29;;;;;;;4.40;2.20;;;;;;;9.18;100.00;98506.91;5036054;28;20041;-80
2022/11/17 03:11:04;;;;;;;3.40;2.20;;;;;;;9.18;100.00;98514.63;5035774;28;20041;-80
2022/11/17 03:13:51;;;;;;;5.32;2.70;;;;;;;9.17;100.00;98518.97;5035776;28;20457;-80
2022/11/17 03:16:24;;;;;;;4.78;2.78;;;;;;;9.09;100.00;98512.94;5035849;28;20120;-81
2022/11/17 03:19:08;;;;;;;5.85;2.80;;;;;;;9.11;100.00;98506.66;5036003;28;20040;-74
2022/11/17 03:21:39;;;;;;;4.78;2.67;;;;;;;9.11;100.00;98506.66;5035821;28;20029;-77
2022/11/17 03:24:14;;;;;;;5.20;2.72;;;;;;;9.02;100.00;98481.78;5035411;28;20033;-80
2022/11/17 03:26:46;;;;;;;5.05;2.50;;;;;;;8.77;100.00;98449.81;5035597;28;20481;-81
2022/11/17 03:29:14;;;;;;;4.15;2.70;;;;;;;9.00;100.00;98486.28;5035607;28;20090;-78
2022/11/17 03:31:43;;;;;;;5.40;2.47;;;;;;;8.85;100.00;98477.44;5035628;28;20033;-78
2022/11/17 03:34:12;;;;;;;4.20;2.00;;;;;;;8.67;100.00;98463.69;5017180;28;20100;-80
2022/11/17 03:36:45;;;;;;;3.92;1.80;;;;;;;8.63;100.00;98458.81;5035393;28;20100;-80
2022/11/17 03:39:18;;;;;;;2.58;1.80;;;;;;;8.75;100.00;98482.63;5035413;28;20021;-80
2022/11/17 03:41:48;;;;;;;2.92;1.50;;;;;;;8.72;100.00;98485.47;5035346;28;20112;-80
2022/11/17 03:44:16;;;;;;;2.40;1.20;;;;;;;8.68;100.00;98481.56;5035298;28;20108;-77
2022/11/17 03:46:46;;;;;;;2.65;1.40;;;;;;;8.63;100.00;98473.44;5035483;28;20022;-77
2022/11/17 03:49:31;;;;;;;2.63;1.10;;;;;;;8.59;100.00;98472.94;5035162;28;20103;-80
2022/11/17 03:51:57;;;;;;;3.78;1.27;;;;;;;8.53;100.00;98465.75;5035316;28;20025;-80
2022/11/17 03:54:23;;;;;;;3.30;1.20;;;;;;;8.51;100.00;98466.88;5035251;28;20028;-78
2022/11/17 03:57:03;;;;;;;2.38;1.25;;;;;;;8.29;100.00;98437.94;5035017;28;20159;-80
2022/11/17 03:59:42;;;;;;;3.95;1.20;;;;;;;8.29;100.00;98432.81;5034925;28;20466;-80
2022/11/17 04:02:08;;;;;;;3.58;1.20;;;;;;;8.51;100.00;98454.81;5017296;28;20385;-76
2022/11/17 04:07:18;;;;;;;2.95;1.30;;;;;;;8.62;100.00;98452.06;5035103;28;20045;-80
2022/11/17 04:09:43;;;;;;;3.10;1.42;;;;;;;8.72;100.00;98454.56;5034895;28;20022;-77
2022/11/17 04:17:36;;;;;;;3.30;1.90;;;;;;;8.75;100.00;98413.16;5034820;28;20037;-81
2022/11/17 04:20:02;;;;;;;4.10;2.50;;;;;;;8.99;100.00;98427.22;5034666;28;20030;-81
2022/11/17 04:22:27;;;;;;;4.93;3.03;;;;;;;9.03;100.00;98434.50;5034482;28;20025;-77
2022/11/17 04:24:52;;;;;;;6.25;3.78;;;;;;;9.17;100.00;98452.03;5034643;28;20473;-81
2022/11/17 04:30:02;;;;;;;5.45;3.03;;;;;;;9.25;100.00;98440.19;5019983;28;20041;-81
2022/11/17 04:32:28;;;;;;;7.85;2.72;;;;;;;9.27;100.00;98446.81;5034625;28;20034;-81
2022/11/17 04:34:53;;;;;;;4.80;2.42;;;;;;;9.11;100.00;98402.88;5034449;28;20025;-81
2022/11/17 04:37:18;;;;;;;3.55;2.15;;;;;;;9.32;100.00;98436.88;5034534;28;20423;-81
2022/11/17 04:39:44;;;;;;;3.55;2.17;;;;;;;9.35;100.00;98440.94;5034392;28;20036;-81
2022/11/17 04:42:10;;;;;;;4.75;2.50;;;;;;;9.28;100.00;98427.84;5034473;28;20025;-81
2022/11/17 04:44:35;;;;;;;3.70;1.75;;;;;;;9.09;100.00;98412.50;5034157;28;20527;-81
2022/11/17 04:47:02;;;;;;;7.70;2.13;;;;;;;9.26;100.00;98439.25;5034272;28;20079;-80
2022/11/17 04:49:28;;;;;;;4.75;2.10;;;;;;;9.22;100.00;98427.59;5034180;28;20030;-80
2022/11/17 04:51:53;;;;;;;4.82;2.08;;;;;;;9.17;100.00;98417.75;5034266;28;20124;-80
2022/11/17 04:54:21;;;;;;;4.20;1.95;;;;;;;8.99;100.00;98371.41;5034139;28;20064;-78
2022/11/17 04:56:47;;;;;;;5.78;1.70;;;;;;;9.12;100.00;98407.06;5034183;28;20029;-80
2022/11/17 04:59:12;;;;;;;4.97;1.80;;;;;;;9.10;100.00;98394.34;5034104;28;20116;-81
2022/11/17 05:01:38;;;;;;;5.82;1.90;;;;;;;8.95;100.00;98380.38;5033977;28;20100;-81
2022/11/17 05:04:06;;;;;;;3.00;1.63;;;;;;;8.77;100.00;98351.25;5033661;28;20053;-81
2022/11/17 05:06:35;;;;;;;6.93;1.80;;;;;;;9.08;100.00;98388.53;5033961;28;20056;-81
2022/11/17 05:09:04;;;;;;;4.60;1.65;;;;;;;9.09;100.00;98397.88;5033896;28;20030;-80
2022/11/17 05:14:16;;;;;;;4.95;1.55;;;;;;;9.11;100.00;98395.16;5033915;28;20045;-81
2022/11/17 05:19:27;;;;;;;4.70;1.70;;;;;;;9.11;100.00;98408.03;5033693;28;20084;-81
2022/11/17 05:21:53;;;;;;;4.55;1.70;;;;;;;8.99;100.00;98386.03;5033486;28;20473;-79
2022/11/17 05:24:19;;;;;;;4.82;2.00;;;;;;;9.10;100.00;98402.06;5033772;28;20052;-79
2022/11/17 05:26:46;;;;;;;5.88;2.25;;;;;;;9.11;100.00;98413.19;5015445;28;20032;-79
2022/11/17 05:29:13;;;;;;;5.63;1.98;;;;;;;9.10;100.00;98414.94;5033264;28;20045;-78
2022/11/17 05:31:39;;;;;;;9.05;2.28;;;;;;;9.09;100.00;98428.78;5085479;23;20095;-78
2022/11/17 05:34:07;;;;;;;7.00;2.03;;;;;;;9.11;100.00;98436.34;5033362;28;20120;-80
2022/11/17 05:36:33;;;;;;;5.72;2.40;;;;;;;9.08;100.00;98424.59;5033462;28;20049;-79
2022/11/17 05:38:59;;;;;;;6.53;1.55;;;;;;;9.13;100.00;98437.81;5033538;28;20053;-80
2022/11/17 05:41:25;;;;;;;7.50;1.90;;;;;;;9.02;100.00;98416.63;5033263;28;20022;-81
2022/11/17 05:43:51;;;;;;;6.55;1.55;;;;;;;9.10;100.00;98432.16;5015352;28;20425;-82
2022/11/17 05:46:18;;;;;;;8.13;1.60;;;;;;;9.04;100.00;98430.97;5033092;28;20031;-81
2022/11/17 05:48:44;;;;;;;6.75;1.98;;;;;;;9.07;100.00;98433.25;5033374;28;20029;-80
2022/11/17 05:51:10;;;;;;;9.20;2.15;;;;;;;8.97;100.00;98422.22;5033060;28;20531;-80
2022/11/17 05:53:35;;;;;;;7.93;2.17;;;;;;;9.04;100.00;98438.69;5033279;28;20034;-81
2022/11/17 05:56:32;;;;;;;8.10;2.35;;;;;;;9.03;100.00;98449.94;5033157;28;20076;-81
2022/11/17 05:59:16;;;;;;;7.85;1.90;;;;;;;9.02;100.00;98447.50;5016961;28;20041;-79
2022/11/17 06:01:49;;;;;;;9.65;1.73;;;;;;;9.04;100.00;98455.91;5033082;28;20389;-80
2022/11/17 06:04:16;;;;;;;6.57;1.90;;;;;;;8.88;100.00;98429.03;5032886;28;20033;-81
2022/11/17 06:06:42;;;;;;;10.95;2.03;;;;;;;9.03;100.00;98454.28;5033053;28;20029;-82
2022/11/17 06:09:08;;;;;;;9.93;2.65;;;;;;;9.03;100.00;98449.13;5033134;28;20033;-82
2022/11/17 06:11:33;;;;;;;10.57;2.33;;;;;;;9.03;100.00;98449.13;5033093;28;20029;-81
2022/11/17 06:13:58;;;;;;;9.95;2.80;;;;;;;8.85;100.00;98434.50;5032772;28;20120;-82
2022/11/17 06:16:29;;;;;;;10.65;1.88;;;;;;;9.03;100.00;98457.66;5032736;28;20025;-81
2022/11/17 06:19:02;;;;;;;9.40;2.28;;;;;;;9.03;100.00;98456.84;5032964;28;20032;-82
2022/11/17 06:21:28;;;;;;;10.48;2.53;;;;;;;8.97;100.00;98449.72;5032980;28;20032;-80
2022/11/17 06:23:54;;;;;;;12.40;2.28;;;;;;;9.00;100.00;98454.56;5032955;28;20026;-81
2022/11/17 06:26:19;;;;;;;14.18;2.95;;;;;;;9.03;100.00;98459.44;5032955;28;20022;-81
2022/11/17 06:28:47;;;;;;;12.20;2.47;;;;;;;9.06;100.00;98461.72;5032814;28;20484;-79
2022/11/17 06:31:14;;;;;;;12.38;2.40;;;;;;;9.06;100.00;98472.03;5032337;28;20050;-81
2022/11/17 06:33:40;;;;;;;10.75;2.38;;;;;;;8.99;100.00;98461.50;5031727;28;20038;-81
2022/11/17 06:36:07;;;;;;;7.05;2.10;;;;;;;9.06;100.00;98469.47;5031901;28;20116;-81
2022/11/17 06:38:34;;;;;;;14.88;2.45;;;;;;;9.05;100.00;98478.94;5032656;28;20033;-81
2022/11/17 06:41:00;;;;;;;8.98;2.28;;;;;;;9.03;100.00;98483.41;5035296;28;20022;-81
2022/11/17 06:43:26;;;;;;;7.60;2.10;;;;;;;8.89;100.00;98456.41;5035077;28;20108;-80
2022/11/17 06:45:51;;;;;;;9.45;3.03;;;;;;;8.98;100.00;98480.47;5017435;28;20117;-78
2022/11/17 06:48:24;;;;;;;11.85;1.60;;;;;;;9.00;100.00;98496.56;5035316;28;20377;-82
2022/11/17 06:50:49;;;;;;;6.30;1.80;;;;;;;8.99;100.00;98497.53;5035171;28;20029;-81
2022/11/17 06:53:14;;;;;;;7.70;2.00;;;;;;;8.96;100.00;98500.41;5035470;28;20021;-80
2022/11/17 06:55:40;;;;;;;9.98;1.35;;;;;;;8.88;100.00;98480.53;5035027;28;20477;-83
2022/11/17 06:58:10;;;;;;;8.60;1.50;;;;;;;8.93;100.00;98497.28;5035085;28;20026;-81
2022/11/17 07:00:36;;;;;;;5.95;1.20;;;;;;;8.88;100.00;98508.03;5033602;28;20022;-79
2022/11/17 07:03:08;;;;;;;5.75;2.00;;;;;;;8.82;100.00;98496.50;5035371;28;20033;-80
2022/11/17 07:05:34;;;;;;;6.88;1.73;;;;;;;8.83;100.00;98513.56;5034839;28;20025;-80
2022/11/17 07:08:01;;;;;;;7.38;1.60;;;;;;;8.82;100.00;98517.09;5035196;28;20111;-80
2022/11/17 07:10:27;;;;;;;4.97;1.23;;;;;;;8.70;100.00;98497.66;5034799;28;20404;-80
2022/11/17 07:12:53;;;;;;;10.32;1.50;;;;;;;8.82;100.00;98517.09;5034811;28;20362;-80
2022/11/17 07:15:18;;;;;;;10.02;1.55;;;;;;;8.75;100.00;98504.94;5034878;28;20056;-79
2022/11/17 07:17:43;;;;;;;7.07;1.85;;;;;;;8.55;100.00;98475.91;5029191;28;20072;-80
2022/11/17 07:20:09;;;;;;;9.52;1.77;;;;;;;8.71;100.00;98504.41;5015000;28;20045;-80
2022/11/17 07:22:36;;;;;;;9.00;1.40;;;;;;;8.80;100.00;98525.94;5014786;28;20046;-81
2022/11/17 07:25:02;;;;;;;6.35;1.25;;;;;;;8.43;100.00;98471.91;5014869;28;20109;-81
2022/11/17 07:27:29;;;;;;;7.72;1.42;;;;;;;8.73;100.00;98525.66;5014950;28;20544;-82
2022/11/17 07:29:54;;;;;;;4.22;1.13;;;;;;;8.62;100.00;98511.22;5014744;28;20022;-81
2022/11/17 07:32:20;;;;;;;6.35;1.38;;;;;;;8.72;100.00;98518.91;4971533;28;1245201;-81
2022/11/17 07:34:45;;;;;;;6.95;1.42;;;;;;;8.75;100.00;98536.66;5015976;28;20053;-81
2022/11/17 07:37:10;;;;;;;5.22;1.02;;;;;;;8.77;100.00;98533.94;5015866;28;20030;-81
2022/11/17 07:39:36;;;;;;;4.13;1.20;;;;;;;8.75;100.00;98540.97;4998235;28;20553;-81
2022/11/17 07:42:01;;;;;;;8.10;1.90;;;;;;;8.75;100.00;98548.69;5015746;28;20040;-81
2022/11/17 07:44:26;;;;;;;5.50;1.40;;;;;;;8.47;100.00;98509.25;5015591;28;20077;-81
2022/11/17 07:46:51;;;;;;;8.40;2.08;;;;;;;8.63;100.00;98542.91;5015354;28;20048;-79
2022/11/17 07:49:17;;;;;;;5.70;1.42;;;;;;;8.65;100.00;98551.28;5015577;28;20030;-82
2022/11/17 07:51:42;;;;;;;4.88;1.40;;;;;;;8.62;100.00;98560.09;5014706;28;20026;-81
2022/11/17 07:54:07;;;;;;;5.75;1.30;;;;;;;8.62;100.00;98556.72;4998089;28;20037;-83
2022/11/17 07:56:35;;;;;;;5.43;1.45;;;;;;;8.42;100.00;98525.09;5015553;28;20022;-82
2022/11/17 07:59:00;;;;;;;5.82;1.60;;;;;;;8.53;100.00;98550.66;5015412;28;20481;-80
2022/11/17 08:01:26;;;;;;;6.88;1.35;;;;;;;8.65;100.00;98568.50;4997380;28;20026;-80
2022/11/17 08:03:52;;;;;;;6.85;1.27;;;;;;;8.68;100.00;98569.03;5015209;28;20111;-81
2022/11/17 08:06:17;;;;;;;5.50;1.27;;;;;;;8.46;100.00;98539.31;5015214;28;20026;-80
2022/11/17 08:08:43;;;;;;;6.38;1.10;;;;;;;8.72;100.00;98574.69;5015126;28;20029;-79
2022/11/17 08:11:10;;;;;;;7.45;1.38;;;;;;;8.67;100.00;98564.03;5015325;28;20030;-82
2022/11/17 08:13:36;;;;;;;5.75;1.02;;;;;;;8.78;100.00;98585.25;5015130;28;20022;-80
2022/11/17 08:16:02;;;;;;;6.50;1.40;;;;;;;8.80;100.00;98585.94;5014960;28;20030;-76
2022/11/17 08:18:28;;;;;;;6.60;1.40;;;;;;;8.49;100.00;98528.75;5014782;28;20022;-78
2022/11/17 08:21:13;;;;;;;5.43;1.23;;;;;;;8.72;100.00;98565.22;5014965;28;20076;-75
2022/11/17 08:23:40;;;;;;;4.22;1.42;;;;;;;8.83;100.00;98590.78;5014880;28;20026;-83
2022/11/17 08:26:08;;;;;;;4.90;1.38;;;;;;;8.74;100.00;98580.50;5014875;28;20033;-84
2022/11/17 08:28:33;;;;;;;4.22;1.00;;;;;;;8.84;100.00;98599.31;5014851;28;20037;-84
2022/11/17 08:31:00;;;;;;;4.55;1.55;;;;;;;8.71;100.00;98586.75;5014884;28;20465;-84
2022/11/17 08:33:26;;;;;;;4.15;1.20;;;;;;;8.83;100.00;98606.22;5014512;28;20065;-83
2022/11/17 08:35:51;;;;;;;6.15;1.40;;;;;;;8.80;100.00;98603.94;5015254;28;20022;-84
2022/11/17 08:38:17;;;;;;;5.88;1.17;;;;;;;8.72;100.00;98603.00;5016397;28;20026;-84
2022/11/17 08:40:42;;;;;;;6.25;1.20;;;;;;;8.57;100.00;98588.03;5016277;28;20022;-82
2022/11/17 08:43:08;;;;;;;5.03;1.08;;;;;;;8.59;100.00;98588.69;5016092;28;20034;-84
2022/11/17 08:45:33;;;;;;;4.00;1.65;;;;;;;8.71;100.00;98609.91;5015298;28;20026;-85
2022/11/17 08:47:58;;;;;;;4.35;0.90;;;;;;;8.70;100.00;98616.00;5015460;28;20104;-84
2022/11/17 08:50:24;;;;;;;4.03;1.48;;;;;;;8.42;100.00;98573.16;5014533;28;20026;-84
2022/11/17 08:52:51;;;;;;;5.05;1.27;;;;;;;8.67;100.00;98621.44;5014783;28;20425;-84
2022/11/17 08:55:16;;;;;;;5.35;1.33;;;;;;;8.68;100.00;98619.69;4997637;28;20049;-84
2022/11/17 08:57:42;;;;;;;7.68;1.33;;;;;;;8.58;100.00;98610.22;5015694;28;20049;-84
2022/11/17 09:00:08;;;;;;;4.95;1.20;;;;;;;8.64;100.00;98624.28;5015038;28;20026;-85
2022/11/17 09:02:33;;;;;;;5.28;1.05;;;;;;;8.63;100.00;98630.38;5013480;28;20029;-84
2022/11/17 09:04:59;;;;;;;5.30;1.10;;;;;;;8.49;100.00;98611.03;5015019;28;20370;-81
2022/11/17 09:07:24;;;;;;;5.70;1.15;;;;;;;8.59;100.00;98636.75;5015402;28;20069;-83
2022/11/17 09:09:49;;;;;;;4.25;0.90;;;;;;;8.59;100.00;98629.03;5014404;28;20029;-81
2022/11/17 09:12:15;;;;;;;5.03;1.20;;;;;;;8.52;100.00;98623.63;5014321;28;20485;-81
2022/11/17 09:14:41;;;;;;;3.72;1.05;;;;;;;8.47;100.00;98612.94;5014270;28;20046;-80
2022/11/17 09:17:06;;;;;;;5.40;1.20;;;;;;;8.60;100.00;98635.81;5013837;28;20770;-80
2022/11/17 09:19:32;;;;;;;2.58;0.95;;;;;;;8.48;100.00;98621.47;4996517;28;20025;-82
2022/11/17 09:21:58;;;;;;;6.25;1.20;;;;;;;8.48;100.00;98618.91;5014152;28;20474;-84
2022/11/17 09:24:25;;;;;;;4.90;1.20;;;;;;;8.59;100.00;98635.00;5013921;28;20041;-84
2022/11/17 09:26:53;;;;;;;6.20;1.33;;;;;;;8.45;100.00;98612.25;5013899;28;20037;-84
2022/11/17 09:29:18;;;;;;;2.30;1.40;;;;;;;8.62;100.00;98633.91;5013785;28;20025;-83
2022/11/17 09:31:43;;;;;;;10.10;1.75;;;;;;;8.77;100.00;98657.47;5013666;28;20028;-85
2022/11/17 09:34:09;;;;;;;3.50;1.13;;;;;;;8.78;100.00;98654.75;5013465;28;20128;-86
2022/11/17 09:36:34;;;;;;;6.55;1.10;;;;;;;8.73;100.00;98656.09;5013832;28;20044;-85
2022/11/17 09:39:00;;;;;;;4.70;1.10;;;;;;;8.75;100.00;98651.59;5013620;28;20141;-84
2022/11/17 09:41:31;;;;;;;3.83;1.10;;;;;;;8.77;100.00;98653.13;5013790;28;20080;-85
2022/11/17 09:44:15;;;;;;;4.38;1.20;;;;;;;8.79;100.00;98652.97;5013569;28;20030;-81
2022/11/17 09:46:50;;;;;;;4.53;1.05;;;;;;;8.99;100.00;98672.56;4996749;28;20030;-83
2022/11/17 09:49:33;;;;;;;4.93;1.10;;;;;;;9.05;100.00;98668.66;5013463;28;20025;-81
2022/11/17 09:52:05;;;;;;;5.13;1.30;;;;;;;9.05;100.00;98671.22;5013548;28;20385;-83
2022/11/17 09:54:58;;;;;;;5.53;1.42;;;;;;;9.12;100.00;98687.72;5013496;28;20038;-83
2022/11/17 09:57:30;;;;;;;5.55;1.40;;;;;;;9.19;100.00;98683.63;5013295;28;20133;-84
2022/11/17 10:00:21;;;;;;;6.13;1.38;;;;;;;9.17;100.00;98675.25;5013400;28;20030;-84
2022/11/17 10:02:47;;;;;;;7.87;1.20;;;;;;;9.33;100.00;98692.66;5012885;28;20038;-84
2022/11/17 10:05:14;;;;;;;5.35;1.42;;;;;;;9.41;100.00;98685.03;5012845;28;20485;-80
2022/11/17 10:07:47;;;;;;;5.28;1.20;;;;;;;9.37;100.00;98673.41;5013432;28;20026;-82
2022/11/17 10:10:18;;;;;;;9.02;1.80;;;;;;;9.41;100.00;98674.75;5013592;28;20408;-81
2022/11/17 10:12:55;;;;;;;3.30;0.98;;;;;;;9.62;100.00;98705.44;5013302;28;20378;-84
2022/11/17 10:15:27;;;;;;;5.20;1.77;;;;;;;9.56;100.00;98685.41;5017376;28;20482;-82
2022/11/17 10:17:52;;;;;;;6.50;1.77;;;;;;;9.47;100.00;98656.97;5017217;28;20093;-80
2022/11/17 10:20:18;;;;;;;5.85;1.27;;;;;;;9.74;100.00;98701.75;4999397;28;20196;-82
2022/11/17 10:22:46;;;;;;;5.43;1.48;;;;;;;9.44;100.00;98652.09;5017115;28;20053;-80
2022/11/17 10:25:37;;;;;;;6.60;1.65;;;;;;;9.79;100.00;98696.94;5017045;28;20077;-80
2022/11/17 10:28:04;;;;;;;4.70;1.10;;;;;;;9.84;100.00;98697.34;5017104;28;20030;-81
2022/11/17 10:30:30;;;;;;;7.40;1.52;;;;;;;10.02;100.00;98705.91;5016998;28;20360;-81
2022/11/17 10:32:58;;;;;;;3.60;1.10;;;;;;;10.13;100.00;98717.81;5017007;28;20091;-81
2022/11/17 10:35:24;;;;;;;4.15;1.00;;;;;;;10.19;100.00;98711.25;5016973;28;20038;-79
2022/11/17 10:38:12;;;;;;;3.67;0.98;;;;;;;10.21;100.00;98723.03;5017093;28;20030;-82
2022/11/17 10:40:37;;;;;;;2.15;0.80;;;;;;;10.21;100.00;98725.59;4999254;28;20469;-81
2022/11/17 10:43:11;;;;;;;10.20;1.48;;;;;;;10.27;100.00;98734.56;5016597;28;20037;-81
2022/11/17 10:46:07;;;;;;;8.38;1.50;;;;;;;10.33;100.00;98731.41;5016952;28;20030;-82
2022/11/17 10:48:35;;;;;;;4.90;1.05;;;;;;;9.93;100.00;98664.69;4899245;29;20421;-82
2022/11/17 10:51:10;;;;;;;3.35;0.80;;;;;;;10.17;100.00;98711.38;4899059;29;20039;-82
2022/11/17 10:53:40;;;;;;;3.50;0.80;;;;;;;10.25;99.95;98714.09;4898944;29;20389;-79
2022/11/17 10:56:14;;;;;;;9.43;1.95;;;;;;;10.40;100.00;98735.00;4899125;29;20127;-82
2022/11/17 10:59:10;;;;;;;5.35;1.05;;;;;;;10.47;99.27;98750.72;4899081;29;20389;-83
2022/11/17 11:01:40;;;;;;;4.38;1.10;;;;;;;10.41;99.59;98736.63;4899130;29;20044;-79
2022/11/17 11:04:26;;;;;;;5.20;1.10;;;;;;;10.18;100.00;98725.09;4898889;29;20028;-81
2022/11/17 11:07:20;;;;;;;3.75;1.00;;;;;;;9.81;100.00;98676.19;4899017;29;20041;-82
2022/11/17 11:09:57;;;;;;;5.13;1.13;;;;;;;10.15;100.00;98746.03;4898877;29;20040;-82
2022/11/17 11:12:46;;;;;;;4.70;1.23;;;;;;;10.19;100.00;98760.25;4898949;29;20032;-83
2022/11/17 11:15:23;;;;;;;3.58;1.00;;;;;;;9.97;100.00;98730.50;4898830;29;20028;-83
2022/11/17 11:17:49;;;;;;;5.78;1.65;;;;;;;10.14;100.00;98752.16;4898988;29;20036;-83
2022/11/17 11:20:18;;;;;;;9.48;1.63;;;;;;;10.14;100.00;98757.31;4898511;29;20062;-79
2022/11/17 11:23:07;;;;;;;4.13;1.42;;;;;;;10.11;100.00;98757.56;4898700;29;20025;-82
2022/11/17 11:26:04;;;;;;;4.38;1.15;;;;;;;10.04;100.00;98747.84;4956910;28;20030;-83
2022/11/17 11:29:03;;;;;;;3.30;0.95;;;;;;;10.18;100.00;98766.38;5016117;28;20165;-82
2022/11/17 11:31:37;;;;;;;4.38;1.20;;;;;;;10.20;100.00;98773.00;5015679;28;20485;-83
2022/11/17 11:34:14;;;;;;;6.43;1.30;;;;;;;10.05;100.00;98744.31;5015751;28;20061;-82
2022/11/17 11:36:43;;;;;;;4.78;1.42;;;;;;;10.12;100.00;98748.88;5015651;28;20114;-83
2022/11/17 11:39:17;;;;;;;8.25;1.75;;;;;;;10.08;100.00;98753.53;5015952;28;20096;-82
2022/11/17 11:42:13;;;;;;;5.65;1.50;;;;;;;10.23;100.00;98777.91;5015706;28;20030;-83
2022/11/17 11:45:14;;;;;;;5.55;1.58;;;;;;;10.21;100.00;98779.78;5015971;28;20025;-82
2022/11/17 11:47:58;;;;;;;2.88;1.17;;;;;;;10.14;100.00;98791.63;5004834;28;20505;-82
2022/11/17 11:50:34;;;;;;;6.20;1.60;;;;;;;10.06;100.00;98791.53;5015076;28;20037;-82
2022/11/17 11:53:06;;;;;;;5.55;1.58;;;;;;;10.01;100.00;98785.97;5015499;28;20029;-83
2022/11/17 11:55:36;;;;;;;3.08;1.10;;;;;;;9.99;100.00;98790.47;5015739;28;20088;-81
2022/11/17 11:58:12;;;;;;;4.72;1.40;;;;;;;9.92;100.00;98795.38;5015323;28;20026;-83
2022/11/17 12:00:41;;;;;;;5.13;1.30;;;;;;;10.03;100.00;98792.66;5015327;28;20160;-80
2022/11/17 12:03:23;;;;;;;5.20;1.50;;;;;;;10.05;100.00;98805.38;5015349;28;20022;-82
2022/11/17 12:09:10;;;;;;;3.72;1.33;;;;;;;9.92;100.00;98805.69;5015382;28;20072;-82
2022/11/17 12:14:24;;;;;;;2.95;1.30;;;;;;;9.97;100.00;98811.25;5015463;28;20041;-82
2022/11/17 12:17:00;;;;;;;4.25;1.25;;;;;;;10.10;100.00;98813.50;5015194;28;20034;-81
2022/11/17 12:19:52;;;;;;;3.20;1.27;;;;;;;10.06;99.77;98786.38;5014779;28;20107;-84